Terminal Aerodrome Forecast
Issued by NWS

Home | Current Version | Previous Version | Text Only | Print | Product List | Glossary On
Versions: 1 2 3 4 5 6 7 8 9 10 11 12 13 14 15 16 17 18 19 20 21 22 23 24 25 26 27 28 29 30 31 32 33 34 35 36 37 38 39 40 41 42 43 44 45 46 47 48 49 50
084
FTUS45 KBOU 220524
TAFBJC
TAF
KBJC 220524Z 2206/2306 28008KT P6SM VCSH BKN040 OVC060
      TEMPO 2206/2207 5SM -RA BKN025 OVC040
     FM220900 23008KT P6SM FEW090 SCT120
     FM221700 30011KT P6SM SCT100 BKN150
     FM222100 35013G22KT P6SM VCSH SCT060 BKN100
     FM222300 01018G30KT P6SM VCTS BKN035CB BKN050
      TEMPO 2223/2303 3SM -RA BR SCT020 OVC035
     FM230300 33010KT P6SM SCT040 BKN080=

USA.gov is the U.S. government's official web portal to all federal, state and local government web resources and services.